Tiempo atmosférico en la estación meteorológica de Valsequillo, Córdoba (575 m.)



Fecha
DESCASC
Temp. máxima en grados centígrados (hora)
DESCASC
Temp. mínima en grados centígrados (hora)
DESCASC
Temp. media en grados centígrados
DESCASC
Racha de viento máxima en m/sg (hora)
DESCASC
Velocidad máxima media en intervalos de 10 minutos(hora)
DESCASC
Precipitaciones diarias en mm
DESCASC
Precipitaciones de 00:00 a 06:00 en mm
DESCASC
Precipitaciones de 06:00 a 12:00 en mm
DESCASC
Precipitaciones de 12:00 a 18:00 en mm
DESCASC
Precipitaciones de 18:00 a 24:00 en mm
DESCASC
23-06-2019 33.3 (17:20) 14.6 (07:10) 23.9 8.33 (13:20) 4.44 (13:40) 0 0 0 0 0
22-06-2019 32.3 (17:40) 12.8 (05:40) 22.5 9.17 (16:20) 4.44 (19:30) 0 0 0 0 0
21-06-2019 28.5 (18:00) 10 (07:20) 19.3 8.89 (02:40) 6.39 (02:50) 0 0 0 0 0
20-06-2019 28.4 (18:00) 12.8 (00:00) 20.6 8.89 (19:40) 6.11 (21:20) 0 0 0 0 0
19-06-2019 28 (18:40) 15.1 (00:00) 21.6 9.17 (14:50) 5.56 (14:50) 0 0 0 0 0
18-06-2019 28.5 (18:10) 15.8 (00:00) 22.2 10.83 (14:20) 6.39 (22:20) 0 0 0 0 0
17-06-2019 30.4 (17:50) 10.6 (00:00) 20.5 10.83 (13:50) 6.11 (20:00) 0 0 0 0 0
16-06-2019 29.6 (17:20) 9.2 (00:00) 19.4 11.11 (18:10) 5.83 (19:10) 0 0 0 0 0
15-06-2019 26.2 (18:20) 8.1 (00:00) 17.2 7.22 (13:20) 4.17 (21:10) 0 0 0 0 0
14-06-2019 22.7 (17:20) 10 (00:00) 16.4 11.94 (14:50) 7.5 (16:40) 0 0 0 0 0
13-06-2019 28.3 (17:30) 11.1 (00:00) 19.7 9.72 (19:40) 5.56 (21:10) 0 0 0 0 0
12-06-2019 28.3 (17:20) 8.7 (00:00) 18.5 9.17 (17:00) 5.28 (17:00) 0 0 0 0 0
11-06-2019 25.2 (19:20) 9.6 (00:00) 17.4 12.22 (16:30) 7.5 (16:00) 0 0 0 0 0
10-06-2019 26.3 (18:20) 9.3 (00:00) 17.8 10 (20:00) 5.83 (18:30) 0 0 0 0 0
09-06-2019 26.6 (16:40) 11.8 (00:00) 19.2 12.5 (18:10) 6.94 (17:00) 0 0 0 0 0
08-06-2019 30.1 (17:30) 8.7 (00:00) 19.4 9.17 (18:00) 5.83 (19:30) 0 0 0 0 0
07-06-2019 22.7 (18:10) 10 (00:00) 16.4 10.83 (01:10) 7.22 (03:00) 0 0 0 0 0
06-06-2019 24.9 (17:20) 7 (00:00) 15.9 16.11 (14:00) 7.22 (23:00) 0 0 0 0 0
05-06-2019 21.5 (17:50) 9.5 (00:00) 15.5 11.67 (03:10) 7.5 (02:40) 0 0 0 0 0
04-06-2019 29.4 (17:10) 14.1 (00:00) 21.8 12.5 (16:10) 8.33 (20:00) 0 0 0 0 0
03-06-2019 34.7 (16:30) 17.6 (00:00) 26.2 10.28 (18:30) 5.83 (18:30) 0 0 0 0 0
02-06-2019 35.1 (18:30) 16.3 (00:00) 25.7 6.94 (01:10) 4.17 (01:10) 0 0 0 0 0
01-06-2019 33.9 (17:40) 13.4 (00:00) 23.7 9.72 (18:40) 4.72 (22:30) 0 0 0 0 0
31-05-2019 33.3 (17:20) 11.7 (00:00) 22.5 13.33 (15:40) 5.28 (14:10) 0 0 0 0 0
30-05-2019 31.8 (17:20) 14.8 (00:00) 23.3 8.89 (15:40) 4.17 (15:20) 0 0 0 0 0
29-05-2019 29.9 (17:30) 15.5 (00:00) 22.7 11.67 (13:20) 6.11 (11:00) 0 0 0 0 0
28-05-2019 32.1 (17:20) 13.8 (00:00) 22.9 9.72 (19:40) 5.28 (00:30) 0 0 0 0 0
27-05-2019 32.5 (17:20) 11.4 (00:00) 21.9 11.94 (18:10) 6.94 (18:10) 0 0 0 0 0
26-05-2019 28.9 (17:10) 11.9 (00:00) 20.4 11.11 (17:50) 5.83 (17:20) 0 0 0 0 0

Gráficas

Temp. máximas Temp. mínimas Temp. medias Precipitaciones Rachas de viento máximas Velocidades máximas media en intervalos de 10 minutos

Datos horarios

Fecha y hora oficial Temperatura (ºC) Velocidad del viento (km/h) Dirección del viento Racha (km/h) Dirección de racha Precipitación (mm) Presión (hPa) Tendencia (hPa) Humedad (%)
2019-06-24 23:00:00 -- -- -- -- -- -- -- -- --
2019-06-24 22:00:00 25.6 12 Noroeste 28 Noroeste 0 -- -- 51
2019-06-24 21:00:00 28 17 Noroeste 36 Sudoeste 0 -- -- 46
2019-06-24 20:00:00 29.7 15 Sudoeste 27 Oeste 0 -- -- 31
2019-06-24 19:00:00 30.4 19 Oeste 33 Oeste 0 -- -- 25
2019-06-24 18:00:00 31.6 13 Sudoeste 33 Sur 0 -- -- 24
2019-06-24 17:00:00 32 17 Oeste 61 Sur 0 -- -- 25
2019-06-24 16:00:00 31.5 15 Sudoeste 32 Sudoeste 0 -- -- 26
2019-06-24 15:00:00 30.6 12 Sur 30 Sudoeste 0 -- -- 27
2019-06-24 14:00:00 29.4 13 Sur 27 Sur 0 -- -- 26
2019-06-24 13:00:00 28.3 16 Sudoeste 27 Sur 0 -- -- 28
2019-06-24 12:00:00 26.8 14 Sur 23 Sur 0 -- -- 30
2019-06-24 11:00:00 24.7 10 Sur 18 Sur 0 -- -- 38
2019-06-24 10:00:00 23.2 7 Sur 13 Sudeste 0 -- -- 43
2019-06-24 09:00:00 20.8 4 Sur 8 Sur 0 -- -- 57
2019-06-24 08:00:00 19.1 3 Sur 8 Sur 0 -- -- 60
2019-06-24 07:00:00 18.2 3 Sudeste 6 Sur 0 -- -- 64
2019-06-24 06:00:00 18.8 3 Este 4 Sudeste 0 -- -- 58
2019-06-24 05:00:00 19.5 2 Sudoeste 9 Oeste 0 -- -- 61
2019-06-24 04:00:00 20 3 Noroeste 14 Oeste 0 -- -- 60
2019-06-24 03:00:00 20.1 3 Oeste 10 Sur 0 -- -- 49
2019-06-24 02:00:00 21.3 5 Sur 10 Sudoeste 0 -- -- 34
2019-06-24 01:00:00 22.4 4 Oeste 9 Oeste 0 -- -- 30
2019-06-24 00:00:00 23 7 Oeste 19 Noroeste 0 -- -- 28
2019-06-23 23:00:00 25.3 11 Noroeste 23 Noroeste 0 -- -- 27
2019-06-23 22:00:00 27.6 7 Oeste 22 Sudoeste 0 -- -- 30
2019-06-23 21:00:00 29.6 12 Sudoeste 21 Sudoeste 0 -- -- 33
2019-06-23 20:00:00 30.7 13 Sudoeste 23 Sudoeste 0 -- -- 30
2019-06-23 19:00:00 31.9 10 Sudoeste 27 Sudoeste 0 -- -- 26
2019-06-23 18:00:00 32.3 11 Sudoeste 24 Sudoeste 0 -- -- 24
2019-06-23 17:00:00 32.6 10 Sudoeste 26 Sur 0 -- -- 23
2019-06-23 16:00:00 32.2 8 Sur 24 Sudeste 0 -- -- 23
2019-06-23 15:00:00 31.2 10 Sur 28 Sudoeste 0 -- -- 23
2019-06-23 14:00:00 30.1 12 Sur 30 Sudoeste 0 -- -- 24
2019-06-23 13:00:00 29 14 Sudoeste 25 Sur 0 -- -- 29
2019-06-23 12:00:00 27.8 10 Sur 24 Sudoeste 0 -- -- 30
2019-06-23 11:00:00 26.3 10 Sur 17 Sur 0 -- -- 31
2019-06-23 10:00:00 24 4 Sur 10 Sur 0 -- -- 28
2019-06-23 09:00:00 19.3 0 Calma 4 Sudeste 0 -- -- 35
2019-06-23 08:00:00 15.6 3 Sudeste 7 Sudeste 0 -- -- 42
2019-06-23 07:00:00 14.7 2 Norte 9 Noroeste 0 -- -- 42
2019-06-23 06:00:00 15.5 6 Oeste 9 Oeste 0 -- -- 41
2019-06-23 05:00:00 16.1 4 Sudoeste 11 Sudoeste 0 -- -- 43
2019-06-23 04:00:00 18.4 5 Sur 9 Sur 0 -- -- 38
2019-06-23 03:00:00 20.1 7 Sur 13 Sur 0 -- -- 38
2019-06-23 02:00:00 21.2 8 Noroeste 21 Oeste 0 -- -- 40
2019-06-23 01:00:00 22.9 14 Oeste 21 Sudoeste 0 -- -- 37
2019-06-23 00:00:00 22.9 8 Sudoeste 17 Sudoeste 0 -- -- 35
2019-06-22 23:00:00 25.1 7 Sur 17 Sudoeste 0 -- -- 27
2019-06-22 22:00:00 27.5 11 Sudoeste 20 Sudoeste 0 -- -- 24
2019-06-22 21:00:00 30.3 12 Sudoeste 24 Sudoeste 0 -- -- 21
2019-06-22 20:00:00 31.6 13 Sudoeste 24 Sudoeste 0 -- -- 20
2019-06-22 19:00:00 32.1 14 Sudoeste 29 Sudoeste 0 -- -- 20
2019-06-22 18:00:00 32 10 Sur 25 Sur 0 -- -- 21
2019-06-22 17:00:00 31.9 11 Sur 33 Sur 0 -- -- 20
2019-06-22 16:00:00 31.7 8 Noroeste 25 Sudoeste 0 -- -- 20
2019-06-22 15:00:00 30.2 9 Sudoeste 25 Sudoeste 0 -- -- 21
2019-06-22 14:00:00 30.3 9 Oeste 28 Oeste 0 -- -- 24
2019-06-22 13:00:00 29.1 8 Norte 24 Sudoeste 0 -- -- 25
2019-06-22 12:00:00 27.6 8 Sudoeste 20 Sur 0 -- -- 30
2019-06-22 11:00:00 26.1 4 Sur 12 Sudeste 0 -- -- 36
2019-06-22 10:00:00 23.3 0 Calma 4 Noroeste 0 -- -- 45
2019-06-22 09:00:00 17.6 0 Calma 2 Oeste 0 -- -- 57
2019-06-22 08:00:00 13.5 0 Calma 4 Sur 0 -- -- 61
2019-06-22 07:00:00 13.9 0 Calma 7 Sur 0 -- -- 56
2019-06-22 06:00:00 12.8 2 Sur 5 Sur 0 -- -- 58
2019-06-22 05:00:00 13.3 4 Oeste 5 Oeste 0 -- -- 48
2019-06-22 04:00:00 14.4 2 Oeste 4 Oeste 0 -- -- 48
2019-06-22 03:00:00 16 0 Calma 7 Sudeste 0 -- -- 45
2019-06-22 02:00:00 16.5 0 Calma 4 Oeste 0 -- -- 46
2019-06-22 01:00:00 18.4 0 Calma 12 Noroeste 0 -- -- 43
2019-06-22 00:00:00 19.5 9 Noroeste 11 Noroeste 0 -- -- 40
2019-06-21 23:00:00 22.2 5 Noroeste 9 Noroeste 0 -- -- 34
2019-06-21 22:00:00 24.6 6 Noroeste 18 Norte 0 -- -- 30
2019-06-21 21:00:00 26 13 Noroeste 23 Noroeste 0 -- -- 27
2019-06-21 20:00:00 26.9 13 Norte 27 Norte 0 -- -- 27
2019-06-21 19:00:00 27.5 12 Noroeste 30 Noroeste 0 -- -- 28
2019-06-21 18:00:00 28.5 12 Noroeste 26 Norte 0 -- -- 29
2019-06-21 17:00:00 28.3 17 Noroeste 28 Noroeste 0 -- -- 27
2019-06-21 16:00:00 27.4 10 Norte 26 Noroeste 0 -- -- 29
2019-06-21 15:00:00 26.8 10 Noroeste 24 Noroeste 0 -- -- 30
2019-06-21 14:00:00 25.4 9 Sudoeste 20 Sudoeste 0 -- -- 33
2019-06-21 13:00:00 23.9 7 Sudoeste 19 Oeste 0 -- -- 37
2019-06-21 12:00:00 21.7 5 Noroeste 17 Noroeste 0 -- -- 47
2019-06-21 11:00:00 19 6 Noroeste 15 Noroeste 0 -- -- 56
2019-06-21 10:00:00 16.7 7 Noroeste 12 Noroeste 0 -- -- 65
2019-06-21 09:00:00 14.1 7 Noroeste 12 Oeste 0 -- -- 76
2019-06-21 08:00:00 11.2 8 Oeste 10 Oeste 0 -- -- 87
2019-06-21 07:00:00 10.7 2 Oeste 9 Sudoeste 0 -- -- 81
2019-06-21 06:00:00 11.7 9 Oeste 11 Oeste 0 -- -- 78
2019-06-21 05:00:00 13.2 5 Sudoeste 21 Oeste 0 -- -- 72
2019-06-21 04:00:00 15.1 20 Oeste 30 Oeste 0 -- -- 68
2019-06-21 03:00:00 16.5 19 Oeste 32 Oeste 0 -- -- 62
2019-06-21 02:00:00 17.6 17 Oeste 28 Noroeste 0 -- -- 58
2019-06-21 01:00:00 18.6 15 Noroeste 25 Noroeste 0 -- -- 54
2019-06-21 00:00:00 19.7 12 Noroeste 23 Noroeste 0 -- -- 51
2019-06-20 23:00:00 20.8 16 Noroeste 24 Noroeste 0 -- -- 46
2019-06-20 22:00:00 22.6 17 Noroeste 31 Noroeste 0 -- -- 39
2019-06-20 21:00:00 25 16 Noroeste 25 Oeste 0 -- -- 37
2019-06-20 20:00:00 26.7 19 Oeste 32 Noroeste 0 -- -- 36
2019-06-20 19:00:00 27.4 17 Oeste 30 Noroeste 0 -- -- 34
2019-06-20 18:00:00 28.4 18 Oeste 31 Oeste 0 -- -- 31
2019-06-20 17:00:00 27.5 11 Oeste 27 Oeste 0 -- -- 31
2019-06-20 16:00:00 27.9 14 Oeste 29 Oeste 0 -- -- 32
2019-06-20 15:00:00 26.6 14 Oeste 31 Oeste 0 -- -- 36
2019-06-20 14:00:00 25.1 11 Oeste 27 Noroeste 0 -- -- 40
2019-06-20 13:00:00 24 10 Oeste 24 Oeste 0 -- -- 47
2019-06-20 12:00:00 22.9 5 Noroeste 19 Oeste 0 -- -- 52
2019-06-20 11:00:00 21.8 3 Oeste 24 Noroeste 0 -- -- 55
2019-06-20 10:00:00 20.5 5 Noroeste 12 Oeste 0 -- -- 60
2019-06-20 09:00:00 17.6 5 Noroeste 11 Noroeste 0 -- -- 71
2019-06-20 08:00:00 13.5 2 Oeste 5 Sudoeste 0 -- -- 77
2019-06-20 07:00:00 13.3 2 Oeste 5 Sudoeste 0 -- -- 72
2019-06-20 06:00:00 14.2 2 Sudoeste 6 Noroeste 0 -- -- 77
2019-06-20 05:00:00 14.2 3 Oeste 6 Oeste 0 -- -- 73
2019-06-20 04:00:00 15.5 2 Noroeste 10 Noroeste 0 -- -- 71
2019-06-20 03:00:00 15.6 3 Sudeste 10 Noroeste 0 -- -- 67
2019-06-20 02:00:00 16.9 3 Noroeste 8 Noroeste 0 -- -- 61
2019-06-20 01:00:00 17.5 8 Noroeste 10 Noroeste 0 -- -- 60
2019-06-20 00:00:00 19.4 6 Noroeste 15 Noroeste 0 -- -- 54
2019-06-19 23:00:00 21.1 12 Noroeste 24 Norte 0 -- -- 51
2019-06-19 22:00:00 22.7 15 Norte 25 Noroeste 0 -- -- 48
2019-06-19 21:00:00 25.4 17 Noroeste 27 Noroeste 0 -- -- 39
2019-06-19 20:00:00 27 15 Norte 27 Noroeste 0 -- -- 34
2019-06-19 19:00:00 27.9 14 Oeste 28 Noroeste 0 -- -- 31
2019-06-19 18:00:00 27.3 7 Norte 29 Sudoeste 0 -- -- 34
2019-06-19 17:00:00 27 11 Noroeste 27 Oeste 0 -- -- 35
2019-06-19 16:00:00 26.7 15 Sudoeste 30 Oeste 0 -- -- 35
2019-06-19 15:00:00 25.5 14 Oeste 33 Oeste 0 -- -- 38
2019-06-19 14:00:00 23.9 12 Noroeste 27 Sudoeste 0 -- -- 43
2019-06-19 13:00:00 22.9 9 Sudoeste 20 Sudoeste 0 -- -- 47
2019-06-19 12:00:00 21.4 7 Sur 21 Sur 0 -- -- 51
2019-06-19 11:00:00 20 9 Sudoeste 17 Oeste 0 -- -- 59
2019-06-19 10:00:00 19 4 Sudeste 12 Noroeste 0 -- -- 64
2019-06-19 09:00:00 17.8 4 Noroeste 8 Oeste 0 -- -- 68
2019-06-19 08:00:00 16 0 Calma 5 Noroeste 0 -- -- 75
2019-06-19 07:00:00 15.7 4 Noroeste 9 Oeste 0 -- -- 77
2019-06-19 06:00:00 15.6 3 Oeste 8 Sudoeste 0 -- -- 79
2019-06-19 05:00:00 15.2 3 Sudoeste 9 Sudoeste 0 -- -- 77
2019-06-19 04:00:00 15.7 7 Sudoeste 13 Sudoeste 0 -- -- 75
2019-06-19 03:00:00 16.9 9 Sudoeste 13 Sudoeste 0 -- -- 70
2019-06-19 02:00:00 17.8 8 Sudoeste 15 Sudoeste 0 -- -- 67
2019-06-19 01:00:00 18.2 9 Sudoeste 17 Sudoeste 0 -- -- 64
2019-06-19 00:00:00 19.3 14 Sudoeste 26 Sudoeste 0 -- -- 59
2019-06-18 23:00:00 20.9 17 Oeste 33 Sudoeste 0 -- -- 53
2019-06-18 22:00:00 22.8 21 Sudoeste 33 Sudoeste 0 -- -- 47
2019-06-18 21:00:00 25.3 21 Sudoeste 33 Sudoeste 0 -- -- 40
2019-06-18 20:00:00 26.6 20 Sudoeste 34 Sudoeste 0 -- -- 38
2019-06-18 19:00:00 28.2 20 Sudoeste 33 Sudoeste 0 -- -- 33
2019-06-18 18:00:00 28.3 18 Oeste 37 Sudoeste 0 -- -- 30
2019-06-18 17:00:00 27.9 21 Sudoeste 38 Sudoeste 0 -- -- 29
2019-06-18 16:00:00 27.8 20 Sudoeste 36 Oeste 0 -- -- 28
2019-06-18 15:00:00 27.3 19 Sur 39 Sudoeste 0 -- -- 22
2019-06-18 14:00:00 26.9 20 Sudoeste 37 Sur 0 -- -- 12
2019-06-18 13:00:00 26.3 21 Sudoeste 34 Sudoeste 0 -- -- 10
2019-06-18 12:00:00 24.9 15 Sudoeste 31 Sur 0 -- -- 15
2019-06-18 11:00:00 22.7 17 Sur 27 Sur 0 -- -- 22
2019-06-18 10:00:00 21.3 14 Sur 28 Sur 0 -- -- 32
2019-06-18 09:00:00 19.3 14 Sur 28 Sur 0 -- -- 36
2019-06-18 08:00:00 17.2 12 Sur 18 Sur 0 -- -- 41
2019-06-18 07:00:00 16.7 10 Sur 17 Sur 0 -- -- 43
2019-06-18 06:00:00 16.4 8 Sudoeste 15 Sudoeste 0 -- -- 41
2019-06-18 05:00:00 17.1 6 Sur 13 Sudoeste 0 -- -- 39
2019-06-18 04:00:00 18 7 Oeste 17 Sur 0 -- -- 32
2019-06-18 03:00:00 20.4 12 Sudoeste 22 Sudoeste 0 -- -- 22
2019-06-18 02:00:00 20.7 9 Sur 19 Sur 0 -- -- 25
2019-06-18 01:00:00 21.8 9 Sur 18 Sur 0 -- -- 25
2019-06-18 00:00:00 22.6 9 Sudoeste 19 Sudoeste 0 -- -- 24
2019-06-17 23:00:00 22.6 11 Sudoeste 16 Sudoeste 0 -- -- 24
2019-06-17 22:00:00 24.7 10 Sudoeste 24 Sudoeste 0 -- -- 25
2019-06-17 21:00:00 27.3 19 Sudoeste 34 Sudoeste 0 -- -- 16
2019-06-17 20:00:00 28.9 22 Sudoeste 35 Sur 0 -- -- 15
2019-06-17 19:00:00 29.9 17 Sudoeste 35 Sudoeste 0 -- -- 16
2019-06-17 18:00:00 30.3 17 Sudoeste 30 Sur 0 -- -- 15
2019-06-17 17:00:00 30 19 Sur 33 Sudoeste 0 -- -- 15
2019-06-17 16:00:00 29.9 17 Sur 34 Sur 0 -- -- 18
2019-06-17 15:00:00 29 18 Sur 31 Sur 0 -- -- 20
2019-06-17 14:00:00 28.1 15 Sur 39 Sudoeste 0 -- -- 19
2019-06-17 13:00:00 27 15 Sur 29 Sur 0 -- -- 21
2019-06-17 12:00:00 24.9 14 Sudoeste 22 Sudoeste 0 -- -- 30
2019-06-17 11:00:00 23.1 8 Sur 16 Sudeste 0 -- -- 33
2019-06-17 10:00:00 20.7 7 Sur 15 Sudoeste 0 -- -- 35
2019-06-17 09:00:00 16.9 4 Este 6 Este 0 -- -- 43
2019-06-17 08:00:00 11.3 0 Calma 2 Nordeste 0 -- -- 55
2019-06-17 07:00:00 11.2 0 Calma 4 Sur 0 -- -- 53
2019-06-17 06:00:00 12.3 3 Oeste 8 Sur 0 -- -- 50
2019-06-17 05:00:00 12.5 6 Sudoeste 9 Sudoeste 0 -- -- 46
2019-06-17 04:00:00 15.3 4 Sudoeste 12 Sur 0 -- -- 43
2019-06-17 03:00:00 17.5 7 Sur 18 Sudoeste 0 -- -- 40
2019-06-17 02:00:00 17.9 7 Sur 17 Sur 0 -- -- 38
2019-06-17 01:00:00 18.2 4 Oeste 16 Sudoeste 0 -- -- 37
2019-06-17 00:00:00 20.3 12 Sudoeste 19 Sur 0 -- -- 34
2019-06-16 23:00:00 21.9 8 Sur 22 Sur 0 -- -- 33
2019-06-16 22:00:00 24.3 11 Sur 23 Sudoeste 0 -- -- 32
2019-06-16 21:00:00 26.5 13 Sur 29 Sur 0 -- -- 25
2019-06-16 20:00:00 27.5 20 Sudoeste 33 Sudoeste 0 -- -- 21
2019-06-16 19:00:00 28.8 18 Sudoeste 40 Sudoeste 0 -- -- 18
2019-06-16 18:00:00 29.5 17 Sudoeste 27 Sudoeste 0 -- -- 17
2019-06-16 17:00:00 29.2 10 Sudoeste 30 Sudoeste 0 -- -- 18
2019-06-16 16:00:00 28.9 14 Sudoeste 28 Sudoeste 0 -- -- 17
2019-06-16 15:00:00 28.4 14 Sur 28 Sur 0 -- -- 18
2019-06-16 14:00:00 28.5 15 Sur 27 Sudeste 0 -- -- 21
2019-06-16 13:00:00 27.8 7 Sur 19 Sudoeste 0 -- -- 23
2019-06-16 12:00:00 26.4 9 Sudeste 22 Sudeste 0 -- -- 24
2019-06-16 11:00:00 23.5 4 Este 10 Este 0 -- -- 26
2019-06-16 10:00:00 20.9 5 Nordeste 10 Nordeste 0 -- -- 29
2019-06-16 09:00:00 15.3 0 Calma 3 Este 0 -- -- 40
2019-06-16 08:00:00 10.4 0 Calma 3 Oeste 0 -- -- 45
2019-06-16 07:00:00 9.3 2 Oeste 3 Oeste 0 -- -- 45
2019-06-16 06:00:00 10.5 0 Calma 2 Noroeste 0 -- -- 42
2019-06-16 05:00:00 11.4 0 Calma 5 Oeste 0 -- -- 42
2019-06-16 04:00:00 12.3 0 Calma 4 Noroeste 0 -- -- 39
2019-06-16 03:00:00 13.1 2 Noroeste 3 Noroeste 0 -- -- 39
2019-06-16 02:00:00 13.6 0 Calma 2 Sudoeste 0 -- -- 37
2019-06-16 01:00:00 15.5 0 Calma 5 Norte 0 -- -- 36
2019-06-16 00:00:00 17.2 3 Nordeste 11 Norte 0 -- -- 35
2019-06-15 23:00:00 18.2 8 Norte 11 Norte 0 -- -- 32
2019-06-15 22:00:00 20.8 10 Norte 21 Norte 0 -- -- 29
2019-06-15 21:00:00 24.2 10 Norte 17 Norte 0 -- -- 26
2019-06-15 20:00:00 25.7 10 Norte 19 Noroeste 0 -- -- 24
2019-06-15 19:00:00 25.7 7 Norte 22 Noroeste 0 -- -- 23
2019-06-15 18:00:00 26.1 13 Oeste 23 Oeste 0 -- -- 22
2019-06-15 17:00:00 25 11 Noroeste 25 Norte 0 -- -- 25
2019-06-15 16:00:00 24.4 13 Noroeste 21 Norte 0 -- -- 25
2019-06-15 15:00:00 23.3 7 Norte 22 Norte 0 -- -- 28
2019-06-15 14:00:00 22.2 6 Nordeste 26 Noroeste 0 -- -- 31
2019-06-15 13:00:00 20.7 5 Nordeste 22 Noroeste 0 -- -- 35
2019-06-15 12:00:00 19.4 5 Nordeste 17 Oeste 0 -- -- 39
2019-06-15 11:00:00 17.7 8 Oeste 17 Oeste 0 -- -- 45
2019-06-15 10:00:00 16.1 3 Norte 12 Noroeste 0 -- -- 52
2019-06-15 09:00:00 12.8 3 Norte 5 Noroeste 0 -- -- 65
2019-06-15 08:00:00 8.7 0 Calma 3 Oeste 0 -- -- 72
2019-06-15 07:00:00 8.2 0 Calma 7 Oeste 0 -- -- 74
2019-06-15 06:00:00 8.9 2 Oeste 8 Noroeste 0 -- -- 68
2019-06-15 05:00:00 9.5 7 Noroeste 12 Noroeste 0 -- -- 66
2019-06-15 04:00:00 10.1 7 Noroeste 13 Oeste 0 -- -- 63
2019-06-15 03:00:00 10.8 5 Oeste 6 Noroeste 0 -- -- 53
2019-06-15 02:00:00 12.2 0 Calma 9 Noroeste 0 -- -- 57
2019-06-15 01:00:00 13 5 Noroeste 10 Noroeste 0 -- -- 52
2019-06-15 00:00:00 14.3 9 Noroeste 14 Noroeste 0 -- -- 46
2019-06-14 23:00:00 15.6 10 Noroeste 24 Noroeste 0 -- -- 43
2019-06-14 22:00:00 17.3 15 Noroeste 28 Noroeste 0 -- -- 39
2019-06-14 21:00:00 19.5 19 Noroeste 35 Oeste 0 -- -- 34
2019-06-14 20:00:00 20.8 20 Oeste 39 Oeste 0 -- -- 32
2019-06-14 19:00:00 21.6 24 Oeste 36 Oeste 0 -- -- 31
2019-06-14 18:00:00 22.2 24 Oeste 39 Oeste 0 -- -- 29
2019-06-14 17:00:00 22.4 22 Oeste 41 Oeste 0 -- -- 29
2019-06-14 16:00:00 22.2 19 Oeste 43 Sudoeste 0 -- -- 30
2019-06-14 15:00:00 21.9 18 Oeste 43 Sudoeste 0 -- -- 33
2019-06-14 14:00:00 21.2 19 Oeste 34 Sudoeste 0 -- -- 34
2019-06-14 13:00:00 19.7 15 Sudoeste 35 Oeste 0 -- -- 37
2019-06-14 12:00:00 18.2 19 Sudoeste 32 Sudoeste 0 -- -- 43
2019-06-14 11:00:00 16.8 14 Sudoeste 24 Sudoeste 0 -- -- 49
2019-06-14 10:00:00 15 14 Sudoeste 23 Sudoeste 0 -- -- 48
2019-06-14 09:00:00 13 17 Sudoeste 22 Sudoeste 0 -- -- 59
2019-06-14 08:00:00 10.7 5 Sur 10 Sur 0 -- -- 64
2019-06-14 07:00:00 10.2 0 Calma 5 Sudoeste 0 -- -- 63
2019-06-14 06:00:00 11 0 Calma 15 Oeste 0 -- -- 63
2019-06-14 05:00:00 11.4 8 Sudoeste 11 Sudoeste 0 -- -- 60
2019-06-14 04:00:00 11.8 7 Oeste 9 Oeste 0 -- -- 54
2019-06-14 03:00:00 14 7 Oeste 24 Oeste 0 -- -- 49
2019-06-14 02:00:00 15.3 10 Oeste 17 Oeste 0 -- -- 38
2019-06-14 01:00:00 16.6 9 Oeste 12 Oeste 0 -- -- 33
2019-06-14 00:00:00 19.3 13 Oeste 21 Oeste 0 -- -- 28
2019-06-13 23:00:00 20.7 15 Oeste 25 Oeste 0 -- -- 26
2019-06-13 22:00:00 22.2 9 Noroeste 28 Oeste 0 -- -- 26
2019-06-13 21:00:00 24.6 17 Noroeste 28 Noroeste 0 -- -- 27
2019-06-13 20:00:00 26.2 18 Noroeste 35 Oeste 0 -- -- 25
2019-06-13 19:00:00 26.8 13 Sur 24 Sudoeste 0 -- -- 28
2019-06-13 18:00:00 27.6 14 Sudoeste 29 Sudoeste 0 -- -- 28
2019-06-13 17:00:00 27.5 15 Sur 28 Sur 0 -- -- 30
2019-06-13 16:00:00 27.1 12 Sur 31 Sudoeste 0 -- -- 30
2019-06-13 15:00:00 26.7 13 Sur 34 Sudeste 0 -- -- 30
2019-06-13 14:00:00 25.4 13 Sur 28 Sur 0 -- -- 31
2019-06-13 13:00:00 24.3 12 Sudoeste 24 Sur 0 -- -- 32
2019-06-13 12:00:00 23.2 10 Sur 22 Sudoeste 0 -- -- 30
2019-06-13 11:00:00 21.2 8 Sudeste 13 Sur 0 -- -- 29
2019-06-13 10:00:00 17.2 3 Sur 10 Sur 0 -- -- 38
2019-06-13 09:00:00 14.5 6 Sudoeste 12 Sur 0 -- -- 44
2019-06-13 08:00:00 11.7 3 Sur 9 Sudoeste 0 -- -- 53
2019-06-13 07:00:00 11.1 5 Sur 9 Sudoeste 0 -- -- 55
2019-06-13 06:00:00 11.7 4 Sur 12 Sur 0 -- -- 51
2019-06-13 05:00:00 12.5 7 Sur 12 Sur 0 -- -- 50
2019-06-13 04:00:00 12.9 5 Sudeste 10 Oeste 0 -- -- 40
2019-06-13 03:00:00 13.3 6 Oeste 9 Noroeste 0 -- -- 33
2019-06-13 02:00:00 14.3 7 Noroeste 15 Noroeste 0 -- -- 29
2019-06-13 01:00:00 16.5 12 Noroeste 20 Noroeste 0 -- -- 25
2019-06-13 00:00:00 19.1 3 Nordeste 11 Este 0 -- -- 23
2019-06-12 23:00:00 21.4 3 Noroeste 9 Oeste 0 -- -- 21
2019-06-12 22:00:00 24 4 Norte 24 Sur 0 -- -- 18
2019-06-12 21:00:00 26 14 Sur 25 Sur 0 -- -- 28
2019-06-12 20:00:00 26.2 12 Sudoeste 26 Sudoeste 0 -- -- 26
2019-06-12 19:00:00 27.3 8 Sur 27 Sur 0 -- -- 23
2019-06-12 18:00:00 27.5 14 Sudoeste 29 Oeste 0 -- -- 21
2019-06-12 17:00:00 28 19 Oeste 33 Sudoeste 0 -- -- 17
2019-06-12 16:00:00 27.1 14 Sudoeste 30 Sudoeste 0 -- -- 19
2019-06-12 15:00:00 26.4 8 Este 24 Sudeste 0 -- -- 21
2019-06-12 14:00:00 25.5 12 Sudoeste 25 Oeste 0 -- -- 22
2019-06-12 13:00:00 24.7 7 Sur 21 Sudoeste 0 -- -- 23
2019-06-12 12:00:00 23.7 6 Oeste 21 Sur 0 -- -- 23
2019-06-12 11:00:00 22 12 Sudeste 22 Este 0 -- -- 27
2019-06-12 10:00:00 19.7 4 Sudeste 7 Nordeste 0 -- -- 25
2019-06-12 09:00:00 15.2 2 Nordeste 8 Nordeste 0 -- -- 32
2019-06-12 08:00:00 9.9 0 Calma 3 Oeste 0 -- -- 44
2019-06-12 07:00:00 9.3 0 Calma 6 Nordeste 0 -- -- 41
2019-06-12 06:00:00 10.4 2 Nordeste 5 Norte 0 -- -- 39
2019-06-12 05:00:00 12 3 Nordeste 6 Norte 0 -- -- 37
2019-06-12 04:00:00 12.5 3 Oeste 10 Nordeste 0 -- -- 34
2019-06-12 03:00:00 15.7 7 Norte 14 Nordeste 0 -- -- 28
2019-06-12 02:00:00 17.2 8 Nordeste 19 Nordeste 0 -- -- 27
2019-06-12 01:00:00 16.9 5 Nordeste 18 Nordeste 0 -- -- 36
2019-06-12 00:00:00 18.1 6 Nordeste 14 Nordeste 0 -- -- 34
2019-06-11 23:00:00 19.5 7 Nordeste 15 Nordeste 0 -- -- 34
2019-06-11 22:00:00 21.4 10 Nordeste 25 Noroeste 0 -- -- 32
2019-06-11 21:00:00 23.2 20 Noroeste 30 Noroeste 0 -- -- 27
2019-06-11 20:00:00 24.7 15 Noroeste 34 Noroeste 0 -- -- 25
2019-06-11 19:00:00 25 13 Noroeste 35 Norte 0 -- -- 22
2019-06-11 18:00:00 24.8 18 Noroeste 41 Noroeste 0 -- -- 21
2019-06-11 17:00:00 24.6 26 Noroeste 44 Noroeste 0 -- -- 24
2019-06-11 16:00:00 24.5 27 Noroeste 41 Noroeste 0 -- -- 27
2019-06-11 15:00:00 23.6 17 Noroeste 43 Noroeste 0 -- -- 31
2019-06-11 14:00:00 23.1 21 Noroeste 43 Norte 0 -- -- 34
2019-06-11 13:00:00 21.8 20 Noroeste 36 Noroeste 0 -- -- 37
2019-06-11 12:00:00 20.5 15 Noroeste 30 Oeste 0 -- -- 40
2019-06-11 11:00:00 18.8 16 Oeste 24 Noroeste 0 -- -- 44
2019-06-11 10:00:00 16.7 14 Noroeste 28 Noroeste 0 -- -- 48
2019-06-11 09:00:00 14.1 12 Noroeste 17 Noroeste 0 -- -- 54
2019-06-11 08:00:00 10.4 0 Calma 6 Sudoeste 0 -- -- 62
2019-06-11 07:00:00 10 3 Noroeste 7 Sudoeste 0 -- -- 61
2019-06-11 06:00:00 10.8 6 Oeste 14 Noroeste 0 -- -- 58
2019-06-11 05:00:00 11.7 8 Oeste 17 Oeste 0 -- -- 56
2019-06-11 04:00:00 13 12 Oeste 17 Noroeste 0 -- -- 49
2019-06-11 03:00:00 14.8 12 Oeste 19 Noroeste 0 -- -- 45
2019-06-11 02:00:00 16.2 15 Noroeste 28 Oeste 0 -- -- 42
2019-06-11 01:00:00 17.8 18 Noroeste 32 Oeste 0 -- -- 37
2019-06-11 00:00:00 18.7 18 Noroeste 25 Noroeste 0 -- -- 35
2019-06-10 23:00:00 18.6 9 Oeste 12 Noroeste 0 -- -- 31
2019-06-10 22:00:00 21.2 10 Oeste 23 Oeste 0 -- -- 26
2019-06-10 21:00:00 24.2 18 Oeste 31 Oeste 0 -- -- 23
2019-06-10 20:00:00 25.6 18 Oeste 36 Oeste 0 -- -- 22
2019-06-10 19:00:00 25.9 18 Oeste 33 Oeste 0 -- -- 25
2019-06-10 18:00:00 26.2 16 Oeste 32 Oeste 0 -- -- 24
2019-06-10 17:00:00 25.6 16 Noroeste 32 Norte 0 -- -- 25
2019-06-10 16:00:00 25.3 18 Noroeste 34 Noroeste 0 -- -- 24
2019-06-10 15:00:00 24.4 10 Noroeste 31 Noroeste 0 -- -- 29
2019-06-10 14:00:00 23.5 10 Noroeste 27 Noroeste 0 -- -- 29
2019-06-10 13:00:00 22.5 11 Noroeste 27 Noroeste 0 -- -- 32
2019-06-10 12:00:00 21.2 14 Noroeste 22 Noroeste 0 -- -- 38
2019-06-10 11:00:00 19.6 9 Noroeste 20 Noroeste 0 -- -- 44
2019-06-10 10:00:00 17.4 8 Oeste 14 Oeste 0 -- -- 53
2019-06-10 09:00:00 13.3 0 Calma 5 Sudeste 0 -- -- 67
2019-06-10 08:00:00 10.2 0 Calma 5 Sudoeste 0 -- -- 78
2019-06-10 07:00:00 9.9 2 Nordeste 5 Norte 0 -- -- 74
2019-06-10 06:00:00 10.8 3 Este 10 Oeste 0 -- -- 70
2019-06-10 05:00:00 12 7 Noroeste 21 Noroeste 0 -- -- 67
2019-06-10 04:00:00 13.7 11 Noroeste 23 Noroeste 0 -- -- 60
2019-06-10 03:00:00 14.6 12 Noroeste 19 Noroeste 0 -- -- 56
2019-06-10 02:00:00 15.8 14 Noroeste 22 Noroeste 0 -- -- 52
2019-06-10 01:00:00 16.9 13 Noroeste 26 Noroeste 0 -- -- 46
2019-06-10 00:00:00 17.8 13 Noroeste 26 Noroeste 0 -- -- 43
2019-06-09 23:00:00 19.5 15 Noroeste 32 Noroeste 0 -- -- 38
2019-06-09 22:00:00 21.1 18 Noroeste 31 Oeste 0 -- -- 32
2019-06-09 21:00:00 23.4 21 Noroeste 34 Noroeste 0 -- -- 26
2019-06-09 20:00:00 24.9 23 Noroeste 40 Oeste 0 -- -- 24
2019-06-09 19:00:00 25.8 20 Oeste 45 Noroeste 0 -- -- 22
2019-06-09 18:00:00 26.3 19 Oeste 30 Oeste 0 -- -- 21
2019-06-09 17:00:00 26.5 25 Noroeste 37 Noroeste 0 -- -- 21
2019-06-09 16:00:00 26.4 23 Noroeste 40 Oeste 0 -- -- 17
2019-06-09 15:00:00 25.5 17 Oeste 33 Sudoeste 0 -- -- 20
2019-06-09 14:00:00 24.6 19 Oeste 42 Oeste 0 -- -- 24
2019-06-09 13:00:00 23.6 20 Oeste 32 Oeste 0 -- -- 28
2019-06-09 12:00:00 22.4 13 Oeste 28 Sudoeste 0 -- -- 32
2019-06-09 11:00:00 20.6 13 Sudoeste 23 Oeste 0 -- -- 35
2019-06-09 10:00:00 18.8 9 Sudoeste 17 Oeste 0 -- -- 40
2019-06-09 09:00:00 15.3 9 Sur 14 Sur 0 -- -- 48
2019-06-09 08:00:00 12.5 3 Sur 10 Sur 0 -- -- 56
2019-06-09 07:00:00 12 2 Sur 12 Sudoeste 0 -- -- 56
2019-06-09 06:00:00 12.2 3 Sudeste 8 Sudeste 0 -- -- 55
2019-06-09 05:00:00 13.6 0 Calma 18 Oeste 0 -- -- 54
2019-06-09 04:00:00 15.2 12 Oeste 20 Oeste 0 -- -- 48
2019-06-09 03:00:00 15.9 11 Oeste 22 Oeste 0 -- -- 43
2019-06-09 02:00:00 17.9 15 Oeste 27 Sudoeste 0 -- -- 38
2019-06-09 01:00:00 17.8 8 Oeste 14 Oeste 0 -- -- 32
2019-06-09 00:00:00 18.9 8 Oeste 27 Sudoeste 0 -- -- 30
2019-06-08 23:00:00 21.7 12 Sudoeste 21 Sudoeste 0 -- -- 31
2019-06-08 22:00:00 24.4 12 Sur 28 Sur 0 -- -- 28
2019-06-08 21:00:00 26.9 17 Sur 30 Sur 0 -- -- 26
2019-06-08 20:00:00 28.4 17 Sur 32 Sudoeste 0 -- -- 18
2019-06-08 19:00:00 29.1 19 Sudoeste 33 Sudoeste 0 -- -- 16
2019-06-08 18:00:00 29 16 Sudoeste 33 Sudoeste 0 -- -- 14
2019-06-08 17:00:00 29.9 14 Oeste 27 Sudoeste 0 -- -- 15
2019-06-08 16:00:00 28.1 13 Sudoeste 25 Sudoeste 0 -- -- 16
2019-06-08 15:00:00 27.9 11 Sur 27 Sudoeste 0 -- -- 15
2019-06-08 14:00:00 26.7 9 Sur 25 Sudoeste 0 -- -- 18
2019-06-08 13:00:00 25.3 9 Oeste 22 Sur 0 -- -- 18
2019-06-08 12:00:00 23.7 5 Sudeste 13 Sur 0 -- -- 22
2019-06-08 11:00:00 21.9 4 Norte 12 Este 0 -- -- 25
2019-06-08 10:00:00 19.5 4 Norte 10 Norte 0 -- -- 28
2019-06-08 09:00:00 15.5 5 Noroeste 9 Noroeste 0 -- -- 39
2019-06-08 08:00:00 9.8 7 Noroeste 10 Noroeste 0 -- -- 51
2019-06-08 07:00:00 8.9 5 Noroeste 10 Noroeste 0 -- -- 51
2019-06-08 06:00:00 9 6 Noroeste 8 Noroeste 0 -- -- 48
2019-06-08 05:00:00 9.1 9 Noroeste 10 Noroeste 0 -- -- 49
2019-06-08 04:00:00 10.6 7 Noroeste 8 Noroeste 0 -- -- 46
2019-06-08 03:00:00 10.4 6 Noroeste 8 Noroeste 0 -- -- 45
2019-06-08 02:00:00 11.1 0 Calma 9 Noroeste 0 -- -- 43
2019-06-08 01:00:00 11.7 6 Noroeste 9 Noroeste 0 -- -- 40
2019-06-08 00:00:00 13.1 8 Norte 13 Norte 0 -- -- 37
2019-06-07 23:00:00 14.9 9 Norte 12 Norte 0 -- -- 34
2019-06-07 22:00:00 17.1 9 Norte 20 Norte 0 -- -- 30
2019-06-07 21:00:00 20.4 13 Norte 23 Norte 0 -- -- 25
2019-06-07 20:00:00 21.9 9 Norte 26 Norte 0 -- -- 23
2019-06-07 19:00:00 22.2 13 Norte 26 Norte 0 -- -- 22
2019-06-07 18:00:00 22.4 14 Norte 29 Norte 0 -- -- 24
2019-06-07 17:00:00 22.2 10 Norte 27 Norte 0 -- -- 23
2019-06-07 16:00:00 21.5 12 Oeste 25 Noroeste 0 -- -- 27
2019-06-07 15:00:00 20.5 11 Noroeste 29 Noroeste 0 -- -- 29
2019-06-07 14:00:00 19.1 10 Noroeste 25 Noroeste 0 -- -- 33
2019-06-07 13:00:00 17.9 6 Norte 25 Norte 0 -- -- 37
2019-06-07 12:00:00 16.9 11 Norte 26 Norte 0 -- -- 41
2019-06-07 11:00:00 14.3 14 Noroeste 25 Norte 0 -- -- 51
2019-06-07 10:00:00 13.8 17 Noroeste 27 Noroeste 0 -- -- 52
2019-06-07 09:00:00 11.9 13 Noroeste 20 Noroeste 0 -- -- 65
2019-06-07 08:00:00 10.2 7 Noroeste 15 Noroeste 0 -- -- 80
2019-06-07 07:00:00 10.6 10 Noroeste 23 Noroeste 0 -- -- 73
2019-06-07 06:00:00 11.2 13 Noroeste 30 Noroeste 0 -- -- 71
2019-06-07 05:00:00 10.7 22 Noroeste 38 Noroeste 0 -- -- 84
2019-06-07 04:00:00 13.1 24 Noroeste 36 Oeste 0 -- -- 81
2019-06-07 03:00:00 16.2 26 Oeste 37 Sudoeste 0 -- -- 65
2019-06-07 02:00:00 16.6 18 Oeste 39 Oeste 0 -- -- 58
2019-06-07 01:00:00 16.8 24 Oeste 37 Sudoeste 0 -- -- 55
2019-06-07 00:00:00 17 21 Oeste 36 Oeste 0 -- -- 51
2019-06-06 23:00:00 18.4 26 Oeste 37 Oeste 0 -- -- 45
2019-06-06 22:00:00 20.1 21 Oeste 33 Sudoeste 0 -- -- 37
2019-06-06 21:00:00 22.6 22 Sudoeste 39 Sudoeste 0 -- -- 27
2019-06-06 20:00:00 24 23 Sudoeste 41 Sudoeste 0 -- -- 24
2019-06-06 19:00:00 24.6 22 Sudoeste 46 Oeste 0 -- -- 21
2019-06-06 18:00:00 24.9 21 Sudoeste 39 Sudoeste 0 -- -- 21
2019-06-06 17:00:00 24.7 23 Sudoeste 39 Sudoeste 0 -- -- 21
2019-06-06 16:00:00 24.4 17 Sudoeste 43 Sudoeste 0 -- -- 23
2019-06-06 15:00:00 23.6 18 Sudoeste 45 Sudoeste 0 -- -- 23
2019-06-06 14:00:00 22.7 17 Sudoeste 58 Sudoeste 0 -- -- 24
2019-06-06 13:00:00 21.3 20 Sudoeste 37 Sudoeste 0 -- -- 28
2019-06-06 12:00:00 19.3 18 Sudoeste 38 Sur 0 -- -- 32
2019-06-06 11:00:00 17.4 7 Sur 15 Sudoeste 0 -- -- 36
2019-06-06 10:00:00 15 3 Sudeste 8 Este 0 -- -- 45
2019-06-06 09:00:00 12.2 6 Noroeste 12 Noroeste 0 -- -- 56
2019-06-06 08:00:00 7.9 7 Noroeste 8 Noroeste 0 -- -- 65
2019-06-06 07:00:00 7.3 0 Calma 2 Sudoeste 0 -- -- 62
2019-06-06 06:00:00 8.7 0 Calma 3 Noroeste 0 -- -- 57
2019-06-06 05:00:00 9.5 0 Calma 9 Noroeste 0 -- -- 56
2019-06-06 04:00:00 10.2 9 Noroeste 17 Noroeste 0 -- -- 54
2019-06-06 03:00:00 11.9 11 Noroeste 21 Oeste 0 -- -- 50
2019-06-06 02:00:00 11 12 Noroeste 16 Oeste 0 -- -- 50
2019-06-06 01:00:00 12.8 5 Noroeste 6 Noroeste 0 -- -- 42
2019-06-06 00:00:00 13.3 3 Norte 9 Noroeste 0 -- -- 43
2019-06-05 23:00:00 14.5 6 Oeste 14 Oeste 0 -- -- 40
2019-06-05 22:00:00 16.9 12 Noroeste 23 Noroeste 0 -- -- 35
2019-06-05 21:00:00 19.1 15 Noroeste 26 Noroeste 0 -- -- 31
2019-06-05 20:00:00 20.5 17 Noroeste 28 Oeste 0 -- -- 28
2019-06-05 19:00:00 21.3 17 Noroeste 30 Noroeste 0 -- -- 27
2019-06-05 18:00:00 21.4 19 Oeste 38 Noroeste 0 -- -- 29
2019-06-05 17:00:00 20.1 22 Noroeste 37 Oeste 0 -- -- 32
2019-06-05 16:00:00 20.4 20 Noroeste 40 Noroeste 0 -- -- 32
2019-06-05 15:00:00 21.2 20 Noroeste 35 Oeste 0 -- -- 32
2019-06-05 14:00:00 20 20 Noroeste 37 Oeste 0 -- -- 34
2019-06-05 13:00:00 18.6 23 Noroeste 37 Oeste 0 -- -- 37
2019-06-05 12:00:00 17.3 17 Noroeste 32 Oeste 0 -- -- 43
2019-06-05 11:00:00 15.5 19 Noroeste 33 Noroeste 0 -- -- 49
2019-06-05 10:00:00 14 20 Noroeste 35 Noroeste 0 -- -- 57
2019-06-05 09:00:00 12.2 21 Noroeste 33 Noroeste 0 -- -- 68
2019-06-05 08:00:00 10.1 16 Noroeste 28 Oeste 0 -- -- 77
2019-06-05 07:00:00 9.5 16 Oeste 24 Noroeste 0 -- -- 81
2019-06-05 06:00:00 9.8 11 Oeste 21 Oeste 0 -- -- 78
2019-06-05 05:00:00 10.5 15 Oeste 26 Oeste 0 -- -- 71
2019-06-05 04:00:00 11.5 21 Oeste 42 Oeste 0 -- -- 63
2019-06-05 03:00:00 12.8 25 Oeste 41 Noroeste 0 -- -- 57
2019-06-05 02:00:00 14.6 23 Oeste 37 Oeste 0 -- -- 55
2019-06-05 01:00:00 16.3 10 Oeste 28 Oeste 0 -- -- 63
2019-06-05 00:00:00 17 19 Noroeste 33 Oeste 0 -- -- 62
2019-06-04 23:00:00 17.9 19 Oeste 39 Oeste 0 -- -- 60
2019-06-04 22:00:00 19 23 Noroeste 42 Noroeste 0 -- -- 60
2019-06-04 21:00:00 21.6 30 Oeste 41 Oeste 0 -- -- 51
2019-06-04 20:00:00 25.3 30 Noroeste 45 Noroeste 0 -- -- 40
2019-06-04 19:00:00 27.2 28 Oeste 40 Oeste 0 -- -- 36
2019-06-04 18:00:00 29.3 22 Oeste 36 Oeste 0 -- -- 30
2019-06-04 17:00:00 29.1 23 Oeste 45 Oeste 0 -- -- 31
2019-06-04 16:00:00 28.5 13 Oeste 42 Oeste 0 -- -- 32
2019-06-04 15:00:00 28 17 Oeste 36 Oeste 0 -- -- 33
2019-06-04 14:00:00 26.9 18 Oeste 33 Sudoeste 0 -- -- 35
2019-06-04 13:00:00 25.4 17 Oeste 28 Oeste 0 -- -- 38
2019-06-04 12:00:00 23.8 13 Sudoeste 29 Oeste 0 -- -- 45
2019-06-04 11:00:00 21.9 9 Oeste 21 Oeste 0 -- -- 55
2019-06-04 10:00:00 20.2 10 Oeste 18 Noroeste 0 -- -- 63
2019-06-04 09:00:00 18.4 9 Noroeste 13 Noroeste 0 -- -- 68
2019-06-04 08:00:00 14.7 2 Oeste 5 Sur 0 -- -- 60
2019-06-04 07:00:00 14.2 2 Sur 4 Sur 0 -- -- 55
2019-06-04 06:00:00 15.3 0 Calma 5 Sudeste 0 -- -- 52
2019-06-04 05:00:00 16.5 0 Calma 9 Sudoeste 0 -- -- 48
2019-06-04 04:00:00 17.6 6 Sudoeste 15 Sudoeste 0 -- -- 39
2019-06-04 03:00:00 18.9 8 Sudoeste 9 Sudoeste 0 -- -- 39
2019-06-04 02:00:00 20.4 4 Noroeste 17 Oeste 0 -- -- 34
2019-06-04 01:00:00 21.9 14 Oeste 21 Oeste 0 -- -- 31
2019-06-04 00:00:00 23.7 12 Oeste 19 Sudoeste 0 -- -- 31
2019-06-03 23:00:00 25.7 13 Sudoeste 21 Sudoeste 0 -- -- 29
2019-06-03 22:00:00 28 12 Sudoeste 25 Sur 0 -- -- 19
2019-06-03 21:00:00 31.3 15 Sur 30 Sur 0 -- -- 15
2019-06-03 20:00:00 32.7 15 Sur 31 Sur 0 -- -- 14
2019-06-03 19:00:00 33.4 18 Sudoeste 37 Sur 0 -- -- 15
2019-06-03 18:00:00 34.2 15 Sur 33 Sudoeste 0 -- -- 16
2019-06-03 17:00:00 34.4 15 Sur 31 Oeste 0 -- -- 15
2019-06-03 16:00:00 34 12 Sur 27 Sudeste 0 -- -- 15
2019-06-03 15:00:00 33.6 9 Oeste 28 Sudeste 0 -- -- 15
2019-06-03 14:00:00 33.1 13 Oeste 24 Oeste 0 -- -- 16
2019-06-03 13:00:00 31.6 5 Norte 18 Noroeste 0 -- -- 17
2019-06-03 12:00:00 30.6 4 Sur 11 Sur 0 -- -- 16
2019-06-03 11:00:00 27.6 3 Noroeste 10 Noroeste 0 -- -- 19
2019-06-03 10:00:00 24.4 4 Oeste 10 Sudoeste 0 -- -- 29
2019-06-03 09:00:00 20.5 6 Sur 10 Sur 0 -- -- 36
2019-06-03 08:00:00 17.7 3 Sur 8 Sudoeste 0 -- -- 40
2019-06-03 07:00:00 17.9 5 Sur 9 Sur 0 -- -- 38
2019-06-03 06:00:00 19 5 Sur 12 Sur 0 -- -- 36
2019-06-03 05:00:00 19.4 7 Sur 12 Sur 0 -- -- 35
2019-06-03 04:00:00 17.6 2 Sudoeste 5 Oeste 0 -- -- 36
2019-06-03 03:00:00 19.4 0 Calma 8 Sudoeste 0 -- -- 32
2019-06-03 02:00:00 22.3 5 Noroeste 14 Sudoeste 0 -- -- 28
2019-06-03 01:00:00 24.6 8 Sudoeste 14 Sudoeste 0 -- -- 25
2019-06-03 00:00:00 25.8 10 Sudoeste 15 Sudoeste 0 -- -- 24
2019-06-02 23:00:00 26.6 8 Sudoeste 17 Sudoeste 0 -- -- 23
2019-06-02 22:00:00 27.3 7 Sudoeste 23 Sur 0 -- -- 22
2019-06-02 21:00:00 31.4 13 Sur 25 Sur 0 -- -- 18
2019-06-02 20:00:00 33.8 8 Sur 23 Sudoeste 0 -- -- 17
2019-06-02 19:00:00 34.8 6 Sudoeste 18 Oeste 0 -- -- 16
2019-06-02 18:00:00 34.5 5 Sur 22 Sur 0 -- -- 16
2019-06-02 17:00:00 34.2 13 Sur 25 Sudoeste 0 -- -- 17
2019-06-02 16:00:00 33.5 7 Sudeste 22 Sudeste 0 -- -- 17
2019-06-02 15:00:00 32.9 6 Sudoeste 19 Este 0 -- -- 18
2019-06-02 14:00:00 32.3 8 Sudoeste 20 Sudoeste 0 -- -- 18
2019-06-02 13:00:00 30.7 7 Sudeste 25 Sur 0 -- -- 20
2019-06-02 12:00:00 29.1 7 Sur 21 Sur 0 -- -- 22
2019-06-02 11:00:00 26.7 13 Sur 22 Sur 0 -- -- 25
2019-06-02 10:00:00 23.8 12 Sur 21 Sur 0 -- -- 28
2019-06-02 09:00:00 20.5 10 Sur 17 Sur 0 -- -- 33
2019-06-02 08:00:00 17.5 5 Sur 10 Sur 0 -- -- 38
2019-06-02 07:00:00 17.6 7 Sur 20 Sur 0 -- -- 35
2019-06-02 06:00:00 16.4 5 Sudeste 9 Noroeste 0 -- -- 38
2019-06-02 05:00:00 16.9 3 Este 12 Sudeste 0 -- -- 38
2019-06-02 04:00:00 18.3 6 Sur 14 Sur 0 -- -- 34
2019-06-02 03:00:00 19 6 Sur 14 Sur 0 -- -- 33
2019-06-02 02:00:00 20.4 6 Sudeste 25 Sur 0 -- -- 31
2019-06-02 01:00:00 22.7 14 Sur 24 Sur 0 -- -- 28
2019-06-02 00:00:00 24.5 12 Sudoeste 22 Sur 0 -- -- 28
2019-06-01 23:00:00 27.2 13 Sudoeste 28 Sudoeste 0 -- -- 26
2019-06-01 22:00:00 28 5 Sudeste 16 Nordeste 0 -- -- 20
2019-06-01 21:00:00 31.7 9 Nordeste 23 Nordeste 0 -- -- 17
2019-06-01 20:00:00 33.5 8 Nordeste 25 Este 0 -- -- 17
2019-06-01 19:00:00 33.7 7 Norte 35 Nordeste 0 -- -- 17
2019-06-01 18:00:00 33.9 7 Noroeste 22 Nordeste 0 -- -- 16
2019-06-01 17:00:00 33.7 10 Sudeste 29 Nordeste 0 -- -- 17
2019-06-01 16:00:00 33.1 9 Este 26 Norte 0 -- -- 17
2019-06-01 15:00:00 32.4 8 Nordeste 26 Sudeste 0 -- -- 19
2019-06-01 14:00:00 31.1 10 Nordeste 27 Este 0 -- -- 21
2019-06-01 13:00:00 29.8 9 Nordeste 24 Nordeste 0 -- -- 23
2019-06-01 12:00:00 28.5 8 Nordeste 19 Nordeste 0 -- -- 26
2019-06-01 11:00:00 26.5 5 Nordeste 15 Nordeste 0 -- -- 29
2019-06-01 10:00:00 23.9 5 Este 10 Nordeste 0 -- -- 32
2019-06-01 09:00:00 17.6 0 Calma 5 Nordeste 0 -- -- 46
2019-06-01 08:00:00 13.5 0 Calma 6 Sudeste 0 -- -- 51
2019-06-01 07:00:00 13.8 4 Sudeste 5 Sudeste 0 -- -- 52
2019-06-01 06:00:00 14.7 3 Noroeste 8 Sur 0 -- -- 48
2019-06-01 05:00:00 16.1 4 Sudoeste 9 Sur 0 -- -- 44
2019-06-01 04:00:00 18.3 4 Sur 23 Sur 0 -- -- 41
2019-06-01 03:00:00 20.1 15 Sur 26 Sur 0 -- -- 37
2019-06-01 02:00:00 20.9 13 Sur 27 Sur 0 -- -- 34
2019-06-01 01:00:00 20.8 5 Sudoeste 17 Sur 0 -- -- 35
2019-06-01 00:00:00 23.1 10 Sur 25 Sur 0 -- -- 31
2019-05-31 23:00:00 24.9 11 Sur 24 Sur 0 -- -- 29
2019-05-31 22:00:00 27.2 5 Nordeste 20 Nordeste 0 -- -- 18
2019-05-31 21:00:00 31.1 9 Nordeste 22 Nordeste 0 -- -- 16
2019-05-31 20:00:00 32.4 9 Nordeste 28 Nordeste 0 -- -- 15
2019-05-31 19:00:00 33 8 Nordeste 25 Norte 0 -- -- 15
2019-05-31 18:00:00 32.9 9 Este 36 Este 0 -- -- 16
2019-05-31 17:00:00 33 10 Nordeste 29 Nordeste 0 -- -- 17
2019-05-31 16:00:00 32.2 13 Sudeste 48 Nordeste 0 -- -- 19
2019-05-31 15:00:00 31.7 12 Este 35 Este 0 -- -- 20
2019-05-31 14:00:00 30.9 15 Nordeste 35 Este 0 -- -- 19
2019-05-31 13:00:00 29.6 15 Este 25 Este 0 -- -- 23
2019-05-31 12:00:00 27.9 7 Nordeste 18 Este 0 -- -- 26
2019-05-31 11:00:00 25.1 8 Nordeste 18 Nordeste 0 -- -- 32
2019-05-31 10:00:00 22.4 7 Nordeste 14 Nordeste 0 -- -- 39
2019-05-31 09:00:00 17.8 3 Norte 5 Noroeste 0 -- -- 50
2019-05-31 08:00:00 12.1 0 Calma 7 Oeste 0 -- -- 65
2019-05-31 07:00:00 12 2 Nordeste 5 Nordeste 0 -- -- 64
2019-05-31 06:00:00 12.8 0 Calma 5 Este 0 -- -- 57
2019-05-31 05:00:00 14.5 2 Sur 6 Sudoeste 0 -- -- 58
2019-05-31 04:00:00 15.2 5 Oeste 12 Sur 0 -- -- 55
2019-05-31 03:00:00 17.1 3 Sur 15 Sur 0 -- -- 51
2019-05-31 02:00:00 18.8 9 Sur 22 Sudoeste 0 -- -- 48
2019-05-31 01:00:00 20 4 Sur 14 Sudoeste 0 -- -- 45
2019-05-31 00:00:00 22.5 4 Sur 17 Sur 0 -- -- 38
2019-05-30 23:00:00 23.8 9 Sur 17 Sur 0 -- -- 34
2019-05-30 22:00:00 26.1 5 Nordeste 19 Nordeste 0 -- -- 22
2019-05-30 21:00:00 29.7 9 Nordeste 26 Nordeste 0 -- -- 18
2019-05-30 20:00:00 30.8 11 Nordeste 27 Norte 0 -- -- 17
2019-05-30 19:00:00 31.5 8 Nordeste 28 Este 0 -- -- 17
2019-05-30 18:00:00 31.8 11 Este 32 Nordeste 0 -- -- 16
2019-05-30 17:00:00 31.7 14 Nordeste 32 Este 0 -- -- 17
2019-05-30 16:00:00 30.9 12 Este 32 Este 0 -- -- 17
2019-05-30 15:00:00 30.1 14 Nordeste 24 Nordeste 0 -- -- 18
2019-05-30 14:00:00 29.4 8 Nordeste 23 Nordeste 0 -- -- 20
2019-05-30 13:00:00 28.2 9 Nordeste 25 Sudeste 0 -- -- 21
2019-05-30 12:00:00 26.7 10 Este 22 Sudeste 0 -- -- 24
2019-05-30 11:00:00 24.7 8 Este 20 Nordeste 0 -- -- 28
2019-05-30 10:00:00 22.2 8 Nordeste 22 Este 0 -- -- 34
2019-05-30 09:00:00 18.6 7 Nordeste 14 Nordeste 0 -- -- 40
2019-05-30 08:00:00 15.4 4 Este 12 Sudeste 0 -- -- 45
2019-05-30 07:00:00 15.3 5 Este 13 Nordeste 0 -- -- 43
2019-05-30 06:00:00 15.6 3 Este 13 Sudeste 0 -- -- 40
2019-05-30 05:00:00 16.2 4 Nordeste 9 Este 0 -- -- 39
2019-05-30 04:00:00 16.3 0 Calma 10 Nordeste 0 -- -- 38
2019-05-30 03:00:00 15.8 3 Nordeste 5 Nordeste 0 -- -- 36
2019-05-30 02:00:00 18.3 3 Nordeste 6 Este 0 -- -- 34
2019-05-30 01:00:00 19.3 2 Nordeste 11 Nordeste 0 -- -- 31
2019-05-30 00:00:00 21.3 8 Nordeste 17 Nordeste 0 -- -- 27
2019-05-29 23:00:00 22.1 6 Nordeste 11 Nordeste 0 -- -- 25
2019-05-29 22:00:00 24.6 9 Nordeste 18 Nordeste 0 -- -- 22
2019-05-29 21:00:00 27.7 10 Nordeste 26 Nordeste 0 -- -- 19
2019-05-29 20:00:00 29.4 12 Nordeste 32 Norte 0 -- -- 19
2019-05-29 19:00:00 29.5 12 Nordeste 29 Nordeste 0 -- -- 19
2019-05-29 18:00:00 29.7 16 Nordeste 31 Nordeste 0 -- -- 19
2019-05-29 17:00:00 29.4 14 Nordeste 29 Nordeste 0 -- -- 21
2019-05-29 16:00:00 28.1 16 Nordeste 37 Nordeste 0 -- -- 21
2019-05-29 15:00:00 27.2 21 Nordeste 37 Nordeste 0 -- -- 21
2019-05-29 14:00:00 26.9 17 Nordeste 42 Nordeste 0 -- -- 22
2019-05-29 13:00:00 25.5 16 Nordeste 35 Nordeste 0 -- -- 23
2019-05-29 12:00:00 23.8 22 Nordeste 37 Nordeste 0 -- -- 25
2019-05-29 11:00:00 22.4 22 Nordeste 35 Nordeste 0 -- -- 28
2019-05-29 10:00:00 21.2 17 Nordeste 31 Nordeste 0 -- -- 29
2019-05-29 09:00:00 18.4 11 Nordeste 31 Este 0 -- -- 35
2019-05-29 08:00:00 16.2 11 Nordeste 20 Nordeste 0 -- -- 39
2019-05-29 07:00:00 15.6 9 Nordeste 22 Nordeste 0 -- -- 40
2019-05-29 06:00:00 16.5 13 Nordeste 23 Nordeste 0 -- -- 38
2019-05-29 05:00:00 16.7 8 Nordeste 22 Nordeste 0 -- -- 36
2019-05-29 04:00:00 17.7 11 Nordeste 21 Nordeste 0 -- -- 32
2019-05-29 03:00:00 19.4 9 Nordeste 22 Nordeste 0 -- -- 30
2019-05-29 02:00:00 20.1 10 Nordeste 21 Nordeste 0 -- -- 28
2019-05-29 01:00:00 22.3 10 Nordeste 20 Nordeste 0 -- -- 25
2019-05-29 00:00:00 22.8 14 Norte 25 Norte 0 -- -- 25
2019-05-28 23:00:00 22.7 11 Noroeste 16 Noroeste 0 -- -- 25
2019-05-28 22:00:00 25.4 9 Noroeste 23 Norte 0 -- -- 27
2019-05-28 21:00:00 29.2 14 Norte 24 Norte 0 -- -- 24
2019-05-28 20:00:00 30.8 7 Norte 35 Norte 0 -- -- 24
2019-05-28 19:00:00 31.4 15 Norte 35 Norte 0 -- -- 21
2019-05-28 18:00:00 32 14 Noroeste 24 Noroeste 0 -- -- 21
2019-05-28 17:00:00 31.8 14 Norte 26 Norte 0 -- -- 22
2019-05-28 16:00:00 31.9 10 Nordeste 28 Nordeste 0 -- -- 23
2019-05-28 15:00:00 30.8 15 Norte 31 Norte 0 -- -- 23
2019-05-28 14:00:00 29.8 7 Este 24 Norte 0 -- -- 26
2019-05-28 13:00:00 28.8 10 Nordeste 26 Nordeste 0 -- -- 29
2019-05-28 12:00:00 27.3 7 Nordeste 18 Norte 0 -- -- 32
2019-05-28 11:00:00 25.5 8 Nordeste 18 Nordeste 0 -- -- 37
2019-05-28 10:00:00 23.1 8 Nordeste 17 Nordeste 0 -- -- 44
2019-05-28 09:00:00 19.6 4 Nordeste 14 Nordeste 0 -- -- 52
2019-05-28 08:00:00 15.5 6 Noroeste 10 Noroeste 0 -- -- 71
2019-05-28 07:00:00 13.9 6 Noroeste 9 Noroeste 0 -- -- 74
2019-05-28 06:00:00 15.3 2 Noroeste 10 Noroeste 0 -- -- 72
2019-05-28 05:00:00 15.9 6 Noroeste 10 Noroeste 0 -- -- 67
2019-05-28 04:00:00 16.6 5 Oeste 8 Noroeste 0 -- -- 63
2019-05-28 03:00:00 18.1 0 Calma 13 Noroeste 0 -- -- 59
2019-05-28 02:00:00 19.7 11 Noroeste 19 Noroeste 0 -- -- 55
2019-05-28 01:00:00 21.9 15 Noroeste 28 Oeste 0 -- -- 46
2019-05-28 00:00:00 22.8 11 Oeste 23 Noroeste 0 -- -- 43
2019-05-27 23:00:00 24.3 12 Noroeste 28 Noroeste 0 -- -- 37
2019-05-27 22:00:00 26.8 17 Noroeste 27 Noroeste 0 -- -- 32
2019-05-27 21:00:00 28.2 16 Noroeste 28 Oeste 0 -- -- 28
2019-05-27 20:00:00 30.4 18 Noroeste 32 Noroeste 0 -- -- 24
2019-05-27 19:00:00 31.3 19 Noroeste 43 Oeste 0 -- -- 23
2019-05-27 18:00:00 31.2 23 Noroeste 40 Oeste 0 -- -- 23
2019-05-27 17:00:00 32 19 Noroeste 35 Oeste 0 -- -- 21
2019-05-27 16:00:00 31.8 22 Noroeste 42 Nordeste 0 -- -- 21
2019-05-27 15:00:00 31.6 18 Oeste 38 Noroeste 0 -- -- 21
2019-05-27 14:00:00 30.8 13 Noroeste 31 Oeste 0 -- -- 22
2019-05-27 13:00:00 29.5 10 Oeste 23 Oeste 0 -- -- 24
2019-05-27 12:00:00 28.3 5 Norte 14 Oeste 0 -- -- 25
2019-05-27 11:00:00 26.3 2 Norte 8 Sudoeste 0 -- -- 29
2019-05-27 10:00:00 23.6 0 Calma 8 Noroeste 0 -- -- 33
2019-05-27 09:00:00 17 2 Noroeste 5 Norte 0 -- -- 47
2019-05-27 08:00:00 11.9 0 Calma 5 Sudeste 0 -- -- 57
2019-05-27 07:00:00 11.5 0 Calma 3 Este 0 -- -- 55
2019-05-27 06:00:00 12.3 0 Calma 3 Oeste 0 -- -- 56
2019-05-27 05:00:00 14.1 3 Noroeste 6 Oeste 0 -- -- 49
2019-05-27 04:00:00 15.9 3 Oeste 9 Nordeste 0 -- -- 45
2019-05-27 03:00:00 18.7 8 Nordeste 10 Nordeste 0 -- -- 42
2019-05-27 02:00:00 16.3 4 Noroeste 6 Oeste 0 -- -- 45
2019-05-27 01:00:00 17.2 2 Oeste 4 Oeste 0 -- -- 43
2019-05-27 00:00:00 18.4 2 Oeste 4 Oeste 0 -- -- 40
2019-05-26 23:00:00 21.1 4 Oeste 11 Nordeste 0 -- -- 34
2019-05-26 22:00:00 24.8 7 Nordeste 21 Norte 0 -- -- 30
2019-05-26 21:00:00 26.9 9 Norte 26 Nordeste 0 -- -- 27
2019-05-26 20:00:00 28.1 14 Norte 30 Norte 0 -- -- 26
2019-05-26 19:00:00 28.9 14 Norte 33 Norte 0 -- -- 25
2019-05-26 18:00:00 28.8 18 Norte 40 Norte 0 -- -- 23
2019-05-26 17:00:00 28.5 15 Norte 34 Norte 0 -- -- 23
2019-05-26 16:00:00 28.1 15 Norte 33 Norte 0 -- -- 22
2019-05-26 15:00:00 27 19 Norte 31 Norte 0 -- -- 24
2019-05-26 14:00:00 26.2 13 Norte 30 Norte 0 -- -- 26
2019-05-26 13:00:00 24.9 13 Norte 36 Norte 0 -- -- 30
2019-05-26 12:00:00 23.6 11 Norte 29 Nordeste 0 -- -- 33
2019-05-26 11:00:00 22.1 16 Nordeste 31 Norte 0 -- -- 34
2019-05-26 10:00:00 20.7 10 Nordeste 21 Norte 0 -- -- 38
2019-05-26 09:00:00 17.8 6 Nordeste 15 Nordeste 0 -- -- 43
2019-05-26 08:00:00 13 0 Calma 5 Este 0 -- -- 52
2019-05-26 07:00:00 14.2 2 Este 11 Nordeste 0 -- -- 47
2019-05-26 06:00:00 13 4 Noroeste 8 Norte 0 -- -- 50
2019-05-26 05:00:00 12.9 0 Calma 6 Sur 0 -- -- 50
2019-05-26 04:00:00 12.6 0 Calma 5 Sur 0 -- -- 49
2019-05-26 03:00:00 13.4 3 Norte 15 Noroeste 0 -- -- 46
2019-05-26 02:00:00 13.7 0 Calma 5 Oeste 0 -- -- 46
2019-05-26 01:00:00 15.1 2 Sudoeste 4 Noroeste 0 -- -- 41
2019-05-26 00:00:00 17.2 0 Calma 8 Norte 0 -- -- 36